Aeroporto :
LOGIN :

Iscrizione | Disclaimer

   EN    FR    IT 

 










Sommario :    VFR   VFR Marginale   IFR   IFR Intensivo   IFR Molto Intensivo
Visibilità : 
Base nubi : 
>= 8 km
>= 3000ft
5 / 8 km
1000 / 3000 ft
1500m / 5 km
500 / 1000 ft
800 / 1500m
200 / 500 ft
< 800m
< 200 ft
Simboli :   Temporali  Nebbia  Neve Forte  Precipitazioni Forti  Vento > 20 kt
SIGMETs :   Varie  Temporali  Ghiacco  Turbolenza  Onda orograficha  Ceneri Vulcaniche







- Altitudine del aeroporto : 11 ft
- Codice IATA : MJV


LELC - Murcia San Javier

ULTIMO METAR :
  • 181900Z 03006KT 9999 FEW011 BKN037 14/12 Q1020 NOSIG

METARs OBSOLETI :
  • 181800Z 04008KT 9999 BKN011 OVC032 14/12 Q1020 NOSIG
  • 181700Z 05009KT 030V090 9999 FEW012 SCT020 BKN025 14/12 Q1020 NOSIG

TAF AMD TAF LELC
Valido dal 18 a 18 ore il 19 a 18 ore UTC


181815Z 1818/1918 05012KT 9999 SCT015 TX17/1915Z TN09/1907Z
BECMG 1820/1823 34003KT
BECMG 1912/1914 06010KT
PROB40
TEMPO 1818/1823 BKN012
Nessun NOTAM noto per questo aeroporto.



MetMap, La meteo Aeronautica in un colpo d'occhio ! - Copyright ORBIFLY Dicembre 2007 - Disclaimer

ORBIFLY MET'MAP TEAM :

Programmazione e sviluppo : Alexandra Zaïnal
Concezione e sviluppo : Baudouin d'Aumeries
Co-Programmazione e sviluppo : Marc-Olivier Méhu
Supporto tecnico e logistico : Manuel Goepfert
Aiuto per la traduzione : Arnaldo La Scala

Contatto : metmap@orbifly.com




FONTI E CREDITI :

   NOAA